<?xml version="1.0" encoding="UTF-8" standalone="no" ?>
<gpx xmlns="http://www.topografix.com/GPX/1/1" xmlns:xsi="http://www.w3.org/2001/XMLSchema-instance" xsi:schemaLocation="http://www.topografix.com/GPX/1/1 http://www.topografix.com/GPX/1/1/gpx.xsd" version="1.1" creator="VisuGPX - https://www.visugpx.com">
  <metadata>
    <name>rando autour du barrage de vouglans </name>
    <desc><![CDATA[du bord du lac aux balcons qui le surplombent lcette belle randonée parcourt un site transformé par le barrage où l'on découvre aussi végétation vestiges et légendes
départ du camping du surchauffants]]></desc>
  </metadata>
  <trk>
    <name><![CDATA[20180523180112-ko8rQ]]></name>
    <trkseg>
      <trkpt lat="46.52347" lon="5.67681">
        <ele>466</ele>
        <time>2018-05-23T14:39:02Z</time>
      </trkpt>
      <trkpt lat="46.5233" lon="5.67728">
        <ele>456</ele>
        <time>2018-05-23T14:40:02Z</time>
      </trkpt>
      <trkpt lat="46.52336" lon="5.67802">
        <ele>476</ele>
        <time>2018-05-23T14:41:02Z</time>
      </trkpt>
      <trkpt lat="46.52325" lon="5.67864">
        <ele>467</ele>
        <time>2018-05-23T14:42:02Z</time>
      </trkpt>
      <trkpt lat="46.52316" lon="5.67917">
        <ele>478</ele>
        <time>2018-05-23T14:43:02Z</time>
      </trkpt>
      <trkpt lat="46.52292" lon="5.6798">
        <ele>477</ele>
        <time>2018-05-23T14:44:02Z</time>
      </trkpt>
      <trkpt lat="46.5229" lon="5.68068">
        <ele>482</ele>
        <time>2018-05-23T14:45:02Z</time>
      </trkpt>
      <trkpt lat="46.52316" lon="5.68148">
        <ele>483</ele>
        <time>2018-05-23T14:46:02Z</time>
      </trkpt>
      <trkpt lat="46.52357" lon="5.68229">
        <ele>497</ele>
        <time>2018-05-23T14:47:02Z</time>
      </trkpt>
      <trkpt lat="46.52376" lon="5.68323">
        <ele>496</ele>
        <time>2018-05-23T14:48:02Z</time>
      </trkpt>
      <trkpt lat="46.52373" lon="5.6842">
        <ele>496</ele>
        <time>2018-05-23T14:49:02Z</time>
      </trkpt>
      <trkpt lat="46.52373" lon="5.68498">
        <ele>497</ele>
        <time>2018-05-23T14:50:02Z</time>
      </trkpt>
      <trkpt lat="46.52362" lon="5.68584">
        <ele>502</ele>
        <time>2018-05-23T14:51:02Z</time>
      </trkpt>
      <trkpt lat="46.52349" lon="5.68652">
        <ele>503</ele>
        <time>2018-05-23T14:52:02Z</time>
      </trkpt>
      <trkpt lat="46.52351" lon="5.68659">
        <ele>503</ele>
        <time>2018-05-23T14:53:02Z</time>
      </trkpt>
      <trkpt lat="46.52349" lon="5.68745">
        <ele>508</ele>
        <time>2018-05-23T14:54:02Z</time>
      </trkpt>
      <trkpt lat="46.52345" lon="5.68842">
        <ele>509</ele>
        <time>2018-05-23T14:55:02Z</time>
      </trkpt>
      <trkpt lat="46.52365" lon="5.68885">
        <ele>512</ele>
        <time>2018-05-23T14:56:02Z</time>
      </trkpt>
      <trkpt lat="46.52421" lon="5.68865">
        <ele>526</ele>
        <time>2018-05-23T14:57:02Z</time>
      </trkpt>
      <trkpt lat="46.52443" lon="5.68834">
        <ele>527</ele>
        <time>2018-05-23T14:58:02Z</time>
      </trkpt>
      <trkpt lat="46.52451" lon="5.6883">
        <ele>530</ele>
        <time>2018-05-23T14:59:02Z</time>
      </trkpt>
      <trkpt lat="46.52488" lon="5.68816">
        <ele>531</ele>
        <time>2018-05-23T15:00:02Z</time>
      </trkpt>
      <trkpt lat="46.52462" lon="5.68754">
        <ele>531</ele>
        <time>2018-05-23T15:01:02Z</time>
      </trkpt>
      <trkpt lat="46.52445" lon="5.68664">
        <ele>530</ele>
        <time>2018-05-23T15:02:02Z</time>
      </trkpt>
      <trkpt lat="46.52443" lon="5.68585">
        <ele>529</ele>
        <time>2018-05-23T15:03:02Z</time>
      </trkpt>
      <trkpt lat="46.52433" lon="5.68533">
        <ele>528</ele>
        <time>2018-05-23T15:04:02Z</time>
      </trkpt>
      <trkpt lat="46.52418" lon="5.6846">
        <ele>526</ele>
        <time>2018-05-23T15:05:02Z</time>
      </trkpt>
      <trkpt lat="46.52423" lon="5.68385">
        <ele>524</ele>
        <time>2018-05-23T15:06:02Z</time>
      </trkpt>
      <trkpt lat="46.52433" lon="5.68323">
        <ele>521</ele>
        <time>2018-05-23T15:07:02Z</time>
      </trkpt>
      <trkpt lat="46.52412" lon="5.68237">
        <ele>513</ele>
        <time>2018-05-23T15:08:02Z</time>
      </trkpt>
      <trkpt lat="46.52409" lon="5.68175">
        <ele>515</ele>
        <time>2018-05-23T15:09:02Z</time>
      </trkpt>
      <trkpt lat="46.52399" lon="5.68132">
        <ele>515</ele>
        <time>2018-05-23T15:10:02Z</time>
      </trkpt>
      <trkpt lat="46.52407" lon="5.68071">
        <ele>519</ele>
        <time>2018-05-23T15:11:02Z</time>
      </trkpt>
      <trkpt lat="46.52419" lon="5.68027">
        <ele>522</ele>
        <time>2018-05-23T15:12:02Z</time>
      </trkpt>
      <trkpt lat="46.52455" lon="5.68">
        <ele>520</ele>
        <time>2018-05-23T15:13:02Z</time>
      </trkpt>
      <trkpt lat="46.52474" lon="5.67974">
        <ele>521</ele>
        <time>2018-05-23T15:14:02Z</time>
      </trkpt>
      <trkpt lat="46.52475" lon="5.67908">
        <ele>519</ele>
        <time>2018-05-23T15:15:02Z</time>
      </trkpt>
      <trkpt lat="46.52505" lon="5.67863">
        <ele>528</ele>
        <time>2018-05-23T15:16:02Z</time>
      </trkpt>
      <trkpt lat="46.52544" lon="5.67838">
        <ele>528</ele>
        <time>2018-05-23T15:17:02Z</time>
      </trkpt>
      <trkpt lat="46.52585" lon="5.67791">
        <ele>530</ele>
        <time>2018-05-23T15:18:02Z</time>
      </trkpt>
      <trkpt lat="46.52624" lon="5.67749">
        <ele>531</ele>
        <time>2018-05-23T15:19:02Z</time>
      </trkpt>
      <trkpt lat="46.52668" lon="5.67719">
        <ele>529</ele>
        <time>2018-05-23T15:20:02Z</time>
      </trkpt>
      <trkpt lat="46.52727" lon="5.67791">
        <ele>529</ele>
        <time>2018-05-23T15:21:02Z</time>
      </trkpt>
      <trkpt lat="46.52761" lon="5.6782">
        <ele>530</ele>
        <time>2018-05-23T15:22:02Z</time>
      </trkpt>
      <trkpt lat="46.52783" lon="5.67751">
        <ele>530</ele>
        <time>2018-05-23T15:23:02Z</time>
      </trkpt>
      <trkpt lat="46.52798" lon="5.67684">
        <ele>529</ele>
        <time>2018-05-23T15:24:02Z</time>
      </trkpt>
      <trkpt lat="46.52816" lon="5.67625">
        <ele>530</ele>
        <time>2018-05-23T15:25:02Z</time>
      </trkpt>
      <trkpt lat="46.52824" lon="5.67569">
        <ele>532</ele>
        <time>2018-05-23T15:26:02Z</time>
      </trkpt>
      <trkpt lat="46.52842" lon="5.67497">
        <ele>533</ele>
        <time>2018-05-23T15:27:02Z</time>
      </trkpt>
      <trkpt lat="46.52861" lon="5.67439">
        <ele>533</ele>
        <time>2018-05-23T15:28:02Z</time>
      </trkpt>
      <trkpt lat="46.52899" lon="5.67403">
        <ele>533</ele>
        <time>2018-05-23T15:29:02Z</time>
      </trkpt>
      <trkpt lat="46.52935" lon="5.67366">
        <ele>533</ele>
        <time>2018-05-23T15:30:02Z</time>
      </trkpt>
      <trkpt lat="46.52936" lon="5.67286">
        <ele>535</ele>
        <time>2018-05-23T15:31:02Z</time>
      </trkpt>
      <trkpt lat="46.52946" lon="5.67233">
        <ele>535</ele>
        <time>2018-05-23T15:32:02Z</time>
      </trkpt>
      <trkpt lat="46.52937" lon="5.6717">
        <ele>535</ele>
        <time>2018-05-23T15:33:02Z</time>
      </trkpt>
      <trkpt lat="46.52912" lon="5.67125">
        <ele>537</ele>
        <time>2018-05-23T15:34:02Z</time>
      </trkpt>
      <trkpt lat="46.52906" lon="5.67083">
        <ele>538</ele>
        <time>2018-05-23T15:35:02Z</time>
      </trkpt>
      <trkpt lat="46.52922" lon="5.67027">
        <ele>540</ele>
        <time>2018-05-23T15:36:02Z</time>
      </trkpt>
      <trkpt lat="46.52946" lon="5.66953">
        <ele>542</ele>
        <time>2018-05-23T15:37:02Z</time>
      </trkpt>
      <trkpt lat="46.52931" lon="5.66867">
        <ele>543</ele>
        <time>2018-05-23T15:38:02Z</time>
      </trkpt>
      <trkpt lat="46.52891" lon="5.6688">
        <ele>545</ele>
        <time>2018-05-23T15:39:02Z</time>
      </trkpt>
      <trkpt lat="46.52849" lon="5.66874">
        <ele>545</ele>
        <time>2018-05-23T15:40:02Z</time>
      </trkpt>
      <trkpt lat="46.52814" lon="5.66876">
        <ele>544</ele>
        <time>2018-05-23T15:41:02Z</time>
      </trkpt>
      <trkpt lat="46.52781" lon="5.6686">
        <ele>543</ele>
        <time>2018-05-23T15:42:02Z</time>
      </trkpt>
      <trkpt lat="46.52746" lon="5.66825">
        <ele>540</ele>
        <time>2018-05-23T15:43:02Z</time>
      </trkpt>
      <trkpt lat="46.52701" lon="5.66809">
        <ele>539</ele>
        <time>2018-05-23T15:44:02Z</time>
      </trkpt>
      <trkpt lat="46.52666" lon="5.66787">
        <ele>539</ele>
        <time>2018-05-23T15:45:02Z</time>
      </trkpt>
      <trkpt lat="46.5266" lon="5.66735">
        <ele>534</ele>
        <time>2018-05-23T15:46:02Z</time>
      </trkpt>
      <trkpt lat="46.52684" lon="5.66686">
        <ele>532</ele>
        <time>2018-05-23T15:47:02Z</time>
      </trkpt>
      <trkpt lat="46.52673" lon="5.66623">
        <ele>528</ele>
        <time>2018-05-23T15:48:02Z</time>
      </trkpt>
      <trkpt lat="46.52686" lon="5.66585">
        <ele>526</ele>
        <time>2018-05-23T15:49:02Z</time>
      </trkpt>
      <trkpt lat="46.52724" lon="5.66557">
        <ele>526</ele>
        <time>2018-05-23T15:50:02Z</time>
      </trkpt>
      <trkpt lat="46.52772" lon="5.66553">
        <ele>537</ele>
        <time>2018-05-23T15:51:02Z</time>
      </trkpt>
      <trkpt lat="46.52825" lon="5.66555">
        <ele>540</ele>
        <time>2018-05-23T15:52:02Z</time>
      </trkpt>
      <trkpt lat="46.52881" lon="5.66542">
        <ele>545</ele>
        <time>2018-05-23T15:53:02Z</time>
      </trkpt>
      <trkpt lat="46.5293" lon="5.66526">
        <ele>548</ele>
        <time>2018-05-23T15:54:02Z</time>
      </trkpt>
      <trkpt lat="46.52978" lon="5.66531">
        <ele>550</ele>
        <time>2018-05-23T15:55:02Z</time>
      </trkpt>
      <trkpt lat="46.53029" lon="5.66555">
        <ele>553</ele>
        <time>2018-05-23T15:56:02Z</time>
      </trkpt>
      <trkpt lat="46.53051" lon="5.66502">
        <ele>554</ele>
        <time>2018-05-23T15:57:02Z</time>
      </trkpt>
      <trkpt lat="46.53096" lon="5.66457">
        <ele>551</ele>
        <time>2018-05-23T15:58:02Z</time>
      </trkpt>
      <trkpt lat="46.53143" lon="5.6643">
        <ele>550</ele>
        <time>2018-05-23T15:59:02Z</time>
      </trkpt>
      <trkpt lat="46.53193" lon="5.664">
        <ele>542</ele>
        <time>2018-05-23T16:00:02Z</time>
      </trkpt>
      <trkpt lat="46.5325" lon="5.6643">
        <ele>550</ele>
        <time>2018-05-23T16:01:02Z</time>
      </trkpt>
      <trkpt lat="46.53298" lon="5.66481">
        <ele>553</ele>
        <time>2018-05-23T16:02:02Z</time>
      </trkpt>
      <trkpt lat="46.53326" lon="5.66533">
        <ele>556</ele>
        <time>2018-05-23T16:03:02Z</time>
      </trkpt>
      <trkpt lat="46.53369" lon="5.66519">
        <ele>556</ele>
        <time>2018-05-23T16:04:02Z</time>
      </trkpt>
      <trkpt lat="46.53419" lon="5.66466">
        <ele>561</ele>
        <time>2018-05-23T16:05:02Z</time>
      </trkpt>
      <trkpt lat="46.53465" lon="5.66439">
        <ele>563</ele>
        <time>2018-05-23T16:06:02Z</time>
      </trkpt>
      <trkpt lat="46.53503" lon="5.66407">
        <ele>570</ele>
        <time>2018-05-23T16:07:02Z</time>
      </trkpt>
      <trkpt lat="46.53522" lon="5.66356">
        <ele>572</ele>
        <time>2018-05-23T16:08:02Z</time>
      </trkpt>
      <trkpt lat="46.53507" lon="5.66338">
        <ele>572</ele>
        <time>2018-05-23T16:09:02Z</time>
      </trkpt>
      <trkpt lat="46.53501" lon="5.66297">
        <ele>570</ele>
        <time>2018-05-23T16:10:02Z</time>
      </trkpt>
      <trkpt lat="46.53512" lon="5.66326">
        <ele>571</ele>
        <time>2018-05-23T16:11:02Z</time>
      </trkpt>
      <trkpt lat="46.53506" lon="5.66389">
        <ele>571</ele>
        <time>2018-05-23T16:12:02Z</time>
      </trkpt>
      <trkpt lat="46.53495" lon="5.66413">
        <ele>567</ele>
        <time>2018-05-23T16:13:02Z</time>
      </trkpt>
      <trkpt lat="46.53478" lon="5.66425">
        <ele>564</ele>
        <time>2018-05-23T16:14:02Z</time>
      </trkpt>
      <trkpt lat="46.53454" lon="5.66443">
        <ele>562</ele>
        <time>2018-05-23T16:15:02Z</time>
      </trkpt>
      <trkpt lat="46.5345" lon="5.66488">
        <ele>561</ele>
        <time>2018-05-23T16:16:02Z</time>
      </trkpt>
      <trkpt lat="46.5345" lon="5.66542">
        <ele>559</ele>
        <time>2018-05-23T16:17:02Z</time>
      </trkpt>
      <trkpt lat="46.5345" lon="5.66569">
        <ele>558</ele>
        <time>2018-05-23T16:18:02Z</time>
      </trkpt>
      <trkpt lat="46.53446" lon="5.66614">
        <ele>556</ele>
        <time>2018-05-23T16:19:02Z</time>
      </trkpt>
      <trkpt lat="46.53455" lon="5.66652">
        <ele>555</ele>
        <time>2018-05-23T16:20:02Z</time>
      </trkpt>
      <trkpt lat="46.53481" lon="5.6671">
        <ele>551</ele>
        <time>2018-05-23T16:21:02Z</time>
      </trkpt>
      <trkpt lat="46.53523" lon="5.66751">
        <ele>547</ele>
        <time>2018-05-23T16:22:02Z</time>
      </trkpt>
      <trkpt lat="46.53568" lon="5.6678">
        <ele>546</ele>
        <time>2018-05-23T16:23:02Z</time>
      </trkpt>
      <trkpt lat="46.53624" lon="5.66795">
        <ele>546</ele>
        <time>2018-05-23T16:24:02Z</time>
      </trkpt>
      <trkpt lat="46.53669" lon="5.66831">
        <ele>542</ele>
        <time>2018-05-23T16:25:02Z</time>
      </trkpt>
      <trkpt lat="46.53718" lon="5.66881">
        <ele>540</ele>
        <time>2018-05-23T16:26:02Z</time>
      </trkpt>
      <trkpt lat="46.53761" lon="5.66934">
        <ele>540</ele>
        <time>2018-05-23T16:27:02Z</time>
      </trkpt>
      <trkpt lat="46.53843" lon="5.66981">
        <ele>543</ele>
        <time>2018-05-23T16:28:02Z</time>
      </trkpt>
      <trkpt lat="46.53899" lon="5.67022">
        <ele>542</ele>
        <time>2018-05-23T16:29:02Z</time>
      </trkpt>
      <trkpt lat="46.53926" lon="5.67091">
        <ele>542</ele>
        <time>2018-05-23T16:30:02Z</time>
      </trkpt>
      <trkpt lat="46.53949" lon="5.67165">
        <ele>540</ele>
        <time>2018-05-23T16:31:02Z</time>
      </trkpt>
      <trkpt lat="46.53946" lon="5.67242">
        <ele>541</ele>
        <time>2018-05-23T16:32:02Z</time>
      </trkpt>
      <trkpt lat="46.53996" lon="5.67255">
        <ele>543</ele>
        <time>2018-05-23T16:33:02Z</time>
      </trkpt>
      <trkpt lat="46.54065" lon="5.67295">
        <ele>539</ele>
        <time>2018-05-23T16:34:02Z</time>
      </trkpt>
      <trkpt lat="46.54062" lon="5.67347">
        <ele>532</ele>
        <time>2018-05-23T16:35:02Z</time>
      </trkpt>
      <trkpt lat="46.54026" lon="5.67374">
        <ele>528</ele>
        <time>2018-05-23T16:36:02Z</time>
      </trkpt>
      <trkpt lat="46.53985" lon="5.67394">
        <ele>523</ele>
        <time>2018-05-23T16:37:02Z</time>
      </trkpt>
      <trkpt lat="46.53941" lon="5.67397">
        <ele>522</ele>
        <time>2018-05-23T16:38:02Z</time>
      </trkpt>
      <trkpt lat="46.53909" lon="5.67415">
        <ele>517</ele>
        <time>2018-05-23T16:39:02Z</time>
      </trkpt>
      <trkpt lat="46.53878" lon="5.6743">
        <ele>505</ele>
        <time>2018-05-23T16:40:02Z</time>
      </trkpt>
      <trkpt lat="46.53851" lon="5.67441">
        <ele>505</ele>
        <time>2018-05-23T16:41:02Z</time>
      </trkpt>
      <trkpt lat="46.53808" lon="5.67453">
        <ele>505</ele>
        <time>2018-05-23T16:42:02Z</time>
      </trkpt>
      <trkpt lat="46.53774" lon="5.67457">
        <ele>504</ele>
        <time>2018-05-23T16:43:02Z</time>
      </trkpt>
      <trkpt lat="46.53732" lon="5.6747">
        <ele>502</ele>
        <time>2018-05-23T16:44:02Z</time>
      </trkpt>
      <trkpt lat="46.53707" lon="5.67479">
        <ele>502</ele>
        <time>2018-05-23T16:45:02Z</time>
      </trkpt>
      <trkpt lat="46.53673" lon="5.67457">
        <ele>506</ele>
        <time>2018-05-23T16:46:02Z</time>
      </trkpt>
      <trkpt lat="46.5365" lon="5.67491">
        <ele>501</ele>
        <time>2018-05-23T16:47:02Z</time>
      </trkpt>
      <trkpt lat="46.53625" lon="5.6752">
        <ele>481</ele>
        <time>2018-05-23T16:48:02Z</time>
      </trkpt>
      <trkpt lat="46.53583" lon="5.67556">
        <ele>482</ele>
        <time>2018-05-23T16:49:02Z</time>
      </trkpt>
      <trkpt lat="46.53528" lon="5.67576">
        <ele>486</ele>
        <time>2018-05-23T16:50:02Z</time>
      </trkpt>
      <trkpt lat="46.53489" lon="5.67621">
        <ele>471</ele>
        <time>2018-05-23T16:51:02Z</time>
      </trkpt>
      <trkpt lat="46.53449" lon="5.67643">
        <ele>469</ele>
        <time>2018-05-23T16:52:02Z</time>
      </trkpt>
      <trkpt lat="46.53396" lon="5.67672">
        <ele>456</ele>
        <time>2018-05-23T16:53:02Z</time>
      </trkpt>
      <trkpt lat="46.53354" lon="5.67693">
        <ele>459</ele>
        <time>2018-05-23T16:54:02Z</time>
      </trkpt>
      <trkpt lat="46.53319" lon="5.67722">
        <ele>465</ele>
        <time>2018-05-23T16:55:02Z</time>
      </trkpt>
      <trkpt lat="46.53285" lon="5.67747">
        <ele>466</ele>
        <time>2018-05-23T16:56:02Z</time>
      </trkpt>
      <trkpt lat="46.53255" lon="5.67773">
        <ele>449</ele>
        <time>2018-05-23T16:57:02Z</time>
      </trkpt>
      <trkpt lat="46.53215" lon="5.67796">
        <ele>457</ele>
        <time>2018-05-23T16:58:02Z</time>
      </trkpt>
      <trkpt lat="46.53177" lon="5.67818">
        <ele>456</ele>
        <time>2018-05-23T16:59:02Z</time>
      </trkpt>
      <trkpt lat="46.53134" lon="5.67811">
        <ele>474</ele>
        <time>2018-05-23T17:00:02Z</time>
      </trkpt>
      <trkpt lat="46.53113" lon="5.67866">
        <ele>453</ele>
        <time>2018-05-23T17:01:02Z</time>
      </trkpt>
      <trkpt lat="46.53085" lon="5.67899">
        <ele>451</ele>
        <time>2018-05-23T17:02:02Z</time>
      </trkpt>
      <trkpt lat="46.5305" lon="5.67928">
        <ele>451</ele>
        <time>2018-05-23T17:03:02Z</time>
      </trkpt>
      <trkpt lat="46.53019" lon="5.67948">
        <ele>453</ele>
        <time>2018-05-23T17:04:02Z</time>
      </trkpt>
      <trkpt lat="46.52978" lon="5.67975">
        <ele>470</ele>
        <time>2018-05-23T17:05:02Z</time>
      </trkpt>
      <trkpt lat="46.52948" lon="5.68007">
        <ele>460</ele>
        <time>2018-05-23T17:06:02Z</time>
      </trkpt>
      <trkpt lat="46.52917" lon="5.6806">
        <ele>456</ele>
        <time>2018-05-23T17:07:02Z</time>
      </trkpt>
      <trkpt lat="46.52881" lon="5.68119">
        <ele>467</ele>
        <time>2018-05-23T17:08:02Z</time>
      </trkpt>
      <trkpt lat="46.52858" lon="5.68159">
        <ele>468</ele>
        <time>2018-05-23T17:09:02Z</time>
      </trkpt>
      <trkpt lat="46.52825" lon="5.68206">
        <ele>481</ele>
        <time>2018-05-23T17:10:02Z</time>
      </trkpt>
      <trkpt lat="46.52799" lon="5.68265">
        <ele>470</ele>
        <time>2018-05-23T17:11:02Z</time>
      </trkpt>
      <trkpt lat="46.52778" lon="5.68337">
        <ele>464</ele>
        <time>2018-05-23T17:12:02Z</time>
      </trkpt>
      <trkpt lat="46.52763" lon="5.68393">
        <ele>464</ele>
        <time>2018-05-23T17:13:02Z</time>
      </trkpt>
      <trkpt lat="46.52741" lon="5.6848">
        <ele>488</ele>
        <time>2018-05-23T17:14:02Z</time>
      </trkpt>
      <trkpt lat="46.52741" lon="5.68561">
        <ele>484</ele>
        <time>2018-05-23T17:15:02Z</time>
      </trkpt>
      <trkpt lat="46.52743" lon="5.68621">
        <ele>484</ele>
        <time>2018-05-23T17:16:02Z</time>
      </trkpt>
      <trkpt lat="46.52746" lon="5.68693">
        <ele>481</ele>
        <time>2018-05-23T17:17:02Z</time>
      </trkpt>
      <trkpt lat="46.52743" lon="5.68749">
        <ele>475</ele>
        <time>2018-05-23T17:18:02Z</time>
      </trkpt>
      <trkpt lat="46.52748" lon="5.68839">
        <ele>494</ele>
        <time>2018-05-23T17:19:02Z</time>
      </trkpt>
      <trkpt lat="46.5275" lon="5.689">
        <ele>488</ele>
        <time>2018-05-23T17:20:02Z</time>
      </trkpt>
      <trkpt lat="46.52746" lon="5.68974">
        <ele>515</ele>
        <time>2018-05-23T17:21:02Z</time>
      </trkpt>
      <trkpt lat="46.52741" lon="5.69052">
        <ele>511</ele>
        <time>2018-05-23T17:22:02Z</time>
      </trkpt>
      <trkpt lat="46.52731" lon="5.69142">
        <ele>499</ele>
        <time>2018-05-23T17:23:02Z</time>
      </trkpt>
      <trkpt lat="46.52704" lon="5.69162">
        <ele>505</ele>
        <time>2018-05-23T17:24:02Z</time>
      </trkpt>
      <trkpt lat="46.52674" lon="5.69204">
        <ele>497</ele>
        <time>2018-05-23T17:25:02Z</time>
      </trkpt>
      <trkpt lat="46.52653" lon="5.69256">
        <ele>499</ele>
        <time>2018-05-23T17:26:02Z</time>
      </trkpt>
      <trkpt lat="46.52621" lon="5.69299">
        <ele>501</ele>
        <time>2018-05-23T17:27:02Z</time>
      </trkpt>
      <trkpt lat="46.52597" lon="5.69366">
        <ele>492</ele>
        <time>2018-05-23T17:28:02Z</time>
      </trkpt>
      <trkpt lat="46.52582" lon="5.69442">
        <ele>502</ele>
        <time>2018-05-23T17:29:02Z</time>
      </trkpt>
      <trkpt lat="46.52561" lon="5.69485">
        <ele>501</ele>
        <time>2018-05-23T17:30:02Z</time>
      </trkpt>
      <trkpt lat="46.52545" lon="5.69568">
        <ele>500</ele>
        <time>2018-05-23T17:31:02Z</time>
      </trkpt>
      <trkpt lat="46.52525" lon="5.6961">
        <ele>497</ele>
        <time>2018-05-23T17:32:02Z</time>
      </trkpt>
      <trkpt lat="46.52491" lon="5.69662">
        <ele>504</ele>
        <time>2018-05-23T17:33:02Z</time>
      </trkpt>
      <trkpt lat="46.52453" lon="5.69712">
        <ele>494</ele>
        <time>2018-05-23T17:34:02Z</time>
      </trkpt>
      <trkpt lat="46.52423" lon="5.69711">
        <ele>495</ele>
        <time>2018-05-23T17:35:02Z</time>
      </trkpt>
      <trkpt lat="46.52373" lon="5.6968">
        <ele>485</ele>
        <time>2018-05-23T17:36:02Z</time>
      </trkpt>
      <trkpt lat="46.52349" lon="5.69595">
        <ele>492</ele>
        <time>2018-05-23T17:37:02Z</time>
      </trkpt>
      <trkpt lat="46.52341" lon="5.69521">
        <ele>495</ele>
        <time>2018-05-23T17:38:02Z</time>
      </trkpt>
      <trkpt lat="46.52362" lon="5.69476">
        <ele>499</ele>
        <time>2018-05-23T17:39:02Z</time>
      </trkpt>
      <trkpt lat="46.5235" lon="5.69442">
        <ele>498</ele>
        <time>2018-05-23T17:40:02Z</time>
      </trkpt>
      <trkpt lat="46.52357" lon="5.69398">
        <ele>500</ele>
        <time>2018-05-23T17:41:02Z</time>
      </trkpt>
      <trkpt lat="46.52366" lon="5.69353">
        <ele>502</ele>
        <time>2018-05-23T17:42:02Z</time>
      </trkpt>
      <trkpt lat="46.52402" lon="5.69303">
        <ele>510</ele>
        <time>2018-05-23T17:43:02Z</time>
      </trkpt>
      <trkpt lat="46.52449" lon="5.69321">
        <ele>518</ele>
        <time>2018-05-23T17:44:02Z</time>
      </trkpt>
      <trkpt lat="46.52489" lon="5.69326">
        <ele>518</ele>
        <time>2018-05-23T17:45:02Z</time>
      </trkpt>
      <trkpt lat="46.52529" lon="5.69287">
        <ele>518</ele>
        <time>2018-05-23T17:46:02Z</time>
      </trkpt>
      <trkpt lat="46.52556" lon="5.69236">
        <ele>524</ele>
        <time>2018-05-23T17:47:02Z</time>
      </trkpt>
      <trkpt lat="46.52573" lon="5.69166">
        <ele>527</ele>
        <time>2018-05-23T17:48:02Z</time>
      </trkpt>
      <trkpt lat="46.52567" lon="5.6909">
        <ele>526</ele>
        <time>2018-05-23T17:49:02Z</time>
      </trkpt>
      <trkpt lat="46.5256" lon="5.69029">
        <ele>526</ele>
        <time>2018-05-23T17:50:02Z</time>
      </trkpt>
      <trkpt lat="46.52547" lon="5.68983">
        <ele>528</ele>
        <time>2018-05-23T17:51:02Z</time>
      </trkpt>
      <trkpt lat="46.52542" lon="5.68931">
        <ele>529</ele>
        <time>2018-05-23T17:52:02Z</time>
      </trkpt>
      <trkpt lat="46.52527" lon="5.68852">
        <ele>532</ele>
        <time>2018-05-23T17:53:02Z</time>
      </trkpt>
      <trkpt lat="46.52516" lon="5.68825">
        <ele>533</ele>
        <time>2018-05-23T17:54:02Z</time>
      </trkpt>
      <trkpt lat="46.52458" lon="5.68827">
        <ele>530</ele>
        <time>2018-05-23T17:55:02Z</time>
      </trkpt>
      <trkpt lat="46.52431" lon="5.6885">
        <ele>527</ele>
        <time>2018-05-23T17:56:02Z</time>
      </trkpt>
      <trkpt lat="46.52392" lon="5.6888">
        <ele>515</ele>
        <time>2018-05-23T17:57:02Z</time>
      </trkpt>
      <trkpt lat="46.52361" lon="5.68882">
        <ele>512</ele>
        <time>2018-05-23T17:58:02Z</time>
      </trkpt>
      <trkpt lat="46.52344" lon="5.68866">
        <ele>510</ele>
        <time>2018-05-23T17:59:02Z</time>
      </trkpt>
      <trkpt lat="46.52345" lon="5.6884">
        <ele>509</ele>
        <time>2018-05-23T18:00:02Z</time>
      </trkpt>
      <trkpt lat="46.52341" lon="5.68796">
        <ele>512</ele>
        <time>2018-05-23T18:01:02Z</time>
      </trkpt>
      <trkpt lat="46.5235" lon="5.68773">
        <ele>512</ele>
        <time>2018-05-23T18:02:02Z</time>
      </trkpt>
      <trkpt lat="46.52347" lon="5.68722">
        <ele>510</ele>
        <time>2018-05-23T18:03:02Z</time>
      </trkpt>
      <trkpt lat="46.5235" lon="5.6868">
        <ele>506</ele>
        <time>2018-05-23T18:04:02Z</time>
      </trkpt>
      <trkpt lat="46.52357" lon="5.68639">
        <ele>505</ele>
        <time>2018-05-23T18:05:02Z</time>
      </trkpt>
      <trkpt lat="46.52358" lon="5.68599">
        <ele>502</ele>
        <time>2018-05-23T18:06:02Z</time>
      </trkpt>
      <trkpt lat="46.52366" lon="5.68571">
        <ele>500</ele>
        <time>2018-05-23T18:07:02Z</time>
      </trkpt>
      <trkpt lat="46.52367" lon="5.68561">
        <ele>500</ele>
        <time>2018-05-23T18:08:02Z</time>
      </trkpt>
      <trkpt lat="46.52367" lon="5.68523">
        <ele>499</ele>
        <time>2018-05-23T18:09:02Z</time>
      </trkpt>
      <trkpt lat="46.52374" lon="5.6848">
        <ele>498</ele>
        <time>2018-05-23T18:10:02Z</time>
      </trkpt>
      <trkpt lat="46.52373" lon="5.68445">
        <ele>497</ele>
        <time>2018-05-23T18:11:02Z</time>
      </trkpt>
      <trkpt lat="46.52375" lon="5.68402">
        <ele>496</ele>
        <time>2018-05-23T18:12:02Z</time>
      </trkpt>
      <trkpt lat="46.52373" lon="5.68369">
        <ele>495</ele>
        <time>2018-05-23T18:13:02Z</time>
      </trkpt>
      <trkpt lat="46.52375" lon="5.68335">
        <ele>495</ele>
        <time>2018-05-23T18:14:02Z</time>
      </trkpt>
      <trkpt lat="46.52372" lon="5.68299">
        <ele>496</ele>
        <time>2018-05-23T18:15:02Z</time>
      </trkpt>
      <trkpt lat="46.52371" lon="5.68279">
        <ele>496</ele>
        <time>2018-05-23T18:16:02Z</time>
      </trkpt>
      <trkpt lat="46.52364" lon="5.68237">
        <ele>499</ele>
        <time>2018-05-23T18:17:02Z</time>
      </trkpt>
      <trkpt lat="46.52348" lon="5.68205">
        <ele>499</ele>
        <time>2018-05-23T18:18:02Z</time>
      </trkpt>
      <trkpt lat="46.52337" lon="5.68186">
        <ele>498</ele>
        <time>2018-05-23T18:19:02Z</time>
      </trkpt>
      <trkpt lat="46.52319" lon="5.68155">
        <ele>484</ele>
        <time>2018-05-23T18:20:02Z</time>
      </trkpt>
      <trkpt lat="46.52308" lon="5.68123">
        <ele>481</ele>
        <time>2018-05-23T18:21:02Z</time>
      </trkpt>
      <trkpt lat="46.52298" lon="5.68093">
        <ele>481</ele>
        <time>2018-05-23T18:22:02Z</time>
      </trkpt>
      <trkpt lat="46.52288" lon="5.6806">
        <ele>482</ele>
        <time>2018-05-23T18:23:02Z</time>
      </trkpt>
      <trkpt lat="46.52291" lon="5.68035">
        <ele>482</ele>
        <time>2018-05-23T18:24:02Z</time>
      </trkpt>
      <trkpt lat="46.52291" lon="5.67999">
        <ele>478</ele>
        <time>2018-05-23T18:25:02Z</time>
      </trkpt>
      <trkpt lat="46.52296" lon="5.67966">
        <ele>477</ele>
        <time>2018-05-23T18:26:02Z</time>
      </trkpt>
      <trkpt lat="46.52305" lon="5.67942">
        <ele>477</ele>
        <time>2018-05-23T18:27:02Z</time>
      </trkpt>
      <trkpt lat="46.52319" lon="5.67907">
        <ele>473</ele>
        <time>2018-05-23T18:28:02Z</time>
      </trkpt>
      <trkpt lat="46.52325" lon="5.67872">
        <ele>468</ele>
        <time>2018-05-23T18:29:02Z</time>
      </trkpt>
      <trkpt lat="46.52327" lon="5.67848">
        <ele>467</ele>
        <time>2018-05-23T18:30:02Z</time>
      </trkpt>
      <trkpt lat="46.52333" lon="5.67826">
        <ele>465</ele>
        <time>2018-05-23T18:31:02Z</time>
      </trkpt>
      <trkpt lat="46.52327" lon="5.67801">
        <ele>460</ele>
        <time>2018-05-23T18:32:02Z</time>
      </trkpt>
      <trkpt lat="46.52321" lon="5.67769">
        <ele>459</ele>
        <time>2018-05-23T18:33:02Z</time>
      </trkpt>
      <trkpt lat="46.52323" lon="5.67747">
        <ele>458</ele>
        <time>2018-05-23T18:34:02Z</time>
      </trkpt>
      <trkpt lat="46.52331" lon="5.67703">
        <ele>454</ele>
        <time>2018-05-23T18:35:02Z</time>
      </trkpt>
      <trkpt lat="46.52334" lon="5.67679">
        <ele>463</ele>
        <time>2018-05-23T18:36:02Z</time>
      </trkpt>
    </trkseg>
  </trk>
</gpx>